Time;durP1;ratioP1;P1;durP2;ratioP2;P2;SDS_P1;SDS_P2;PMS_P1;PMS_P2;Temp;Humidity;BMP_temperature;BMP_pressure;BME280_temperature;BME280_humidity;BME280_pressure;Samples;Min_cycle;Max_cycle;Signal;HPM_P1;HPM_P2
2023/07/11 00:00:31;;;;;;;3.63;1.80;;;;;;;22.01;51.99;101219.44;5034112;28;20099;-57
2023/07/11 00:02:57;;;;;;;7.07;1.65;;;;;;;22.05;51.94;101215.91;5034434;28;20079;-57
2023/07/11 00:05:24;;;;;;;9.75;2.60;;;;;;;21.80;52.46;101218.63;5034416;28;20095;-57
2023/07/11 00:07:50;;;;;;;5.95;1.95;;;;;;;21.76;52.28;101218.34;5019736;28;20060;-58
2023/07/11 00:10:19;;;;;;;6.38;2.00;;;;;;;21.67;52.87;101211.81;5051329;28;20025;-55
2023/07/11 00:12:46;;;;;;;9.40;2.20;;;;;;;21.67;52.40;101209.09;5049905;28;20020;-52
2023/07/11 00:15:15;;;;;;;15.13;2.60;;;;;;;20.90;55.23;101209.94;5034556;28;20383;-52
2023/07/11 00:17:42;;;;;;;8.77;2.10;;;;;;;20.57;55.35;101198.34;5045514;28;20382;-55
2023/07/11 00:20:11;;;;;;;4.97;1.92;;;;;;;20.59;56.15;101204.34;5054147;28;20028;-52
2023/07/11 00:22:38;;;;;;;5.65;1.75;;;;;;;20.72;55.30;101203.88;5054174;28;20102;-52
2023/07/11 00:25:05;;;;;;;7.97;2.28;;;;;;;20.72;55.57;101200.34;5048465;28;20021;-55
2023/07/11 00:27:31;;;;;;;14.13;2.10;;;;;;;20.20;56.29;101204.63;5034224;28;20021;-54
2023/07/11 00:29:57;;;;;;;4.90;1.50;;;;;;;20.14;57.67;101202.13;5033934;28;20022;-52
2023/07/11 00:32:24;;;;;;;9.30;2.17;;;;;;;20.44;56.33;101204.25;5034266;28;20024;-53
2023/07/11 00:34:50;;;;;;;6.70;2.13;;;;;;;20.40;55.62;101194.97;5044862;28;20056;-51
2023/07/11 00:37:16;;;;;;;7.32;2.22;;;;;;;20.13;55.86;101195.06;5053816;28;20017;-52
2023/07/11 00:39:43;;;;;;;9.07;2.90;;;;;;;19.94;57.98;101191.94;5053401;28;20103;-52
2023/07/11 00:42:10;;;;;;;5.18;1.63;;;;;;;19.53;58.52;101203.22;5053416;28;20024;-51
2023/07/11 00:45:03;;;;;;;18.42;2.83;;;;;;;19.50;59.34;101192.06;5053752;28;20051;-52
2023/07/11 00:47:31;;;;;;;9.73;2.40;;;;;;;19.29;60.23;101185.59;5053682;28;20471;-50
2023/07/11 00:50:03;;;;;;;8.68;2.38;;;;;;;19.31;60.61;101188.06;5053025;28;20036;-52
2023/07/11 00:52:31;;;;;;;7.75;2.47;;;;;;;18.89;61.62;101180.56;5041811;28;20020;-52
2023/07/11 00:55:02;;;;;;;6.90;2.38;;;;;;;18.91;62.02;101181.09;5049941;28;20040;-51
2023/07/11 00:57:32;;;;;;;12.52;2.95;;;;;;;18.93;62.55;101184.38;5046456;28;20124;-50
2023/07/11 00:59:59;;;;;;;8.20;2.55;;;;;;;18.81;62.94;101184.50;5047564;28;20024;-52
2023/07/11 01:02:27;;;;;;;7.75;2.67;;;;;;;18.74;62.83;101186.59;5052837;28;20107;-50
2023/07/11 01:04:56;;;;;;;11.05;3.00;;;;;;;18.67;63.62;101184.06;5022183;28;20025;-52
2023/07/11 01:07:29;;;;;;;11.85;2.88;;;;;;;18.45;63.84;101185.91;5028725;28;20033;-50
2023/07/11 01:09:56;;;;;;;11.55;3.10;;;;;;;18.55;63.16;101186.06;5033189;28;20112;-51
2023/07/11 01:12:22;;;;;;;8.95;2.60;;;;;;;18.46;64.28;101180.22;5040606;28;20021;-51
2023/07/11 01:14:50;;;;;;;9.98;3.10;;;;;;;18.40;64.94;101194.78;5031818;28;20064;-51
2023/07/11 01:17:37;;;;;;;10.65;2.88;;;;;;;18.26;65.20;101192.66;5044052;28;20017;-52
2023/07/11 01:20:07;;;;;;;15.20;3.00;;;;;;;17.80;65.98;101197.38;5051690;28;20033;-51
2023/07/11 01:22:36;;;;;;;11.25;3.55;;;;;;;17.74;67.15;101196.47;5052733;28;20360;-48
2023/07/11 01:25:09;;;;;;;14.27;3.22;;;;;;;17.78;66.66;101185.97;5046763;28;20037;-51
2023/07/11 01:27:41;;;;;;;11.23;2.83;;;;;;;17.63;67.29;101190.00;5048460;28;20036;-51
2023/07/11 01:30:11;;;;;;;11.57;3.03;;;;;;;17.76;66.41;101188.09;5053443;28;20028;-49
2023/07/11 01:32:38;;;;;;;9.15;3.20;;;;;;;17.59;67.24;101191.56;5040123;28;20375;-50
2023/07/11 01:35:05;;;;;;;14.93;3.47;;;;;;;17.52;67.05;101181.97;5052384;28;20035;-51
2023/07/11 01:37:32;;;;;;;11.18;3.10;;;;;;;17.44;66.93;101188.59;5045366;28;20074;-52
2023/07/11 01:39:58;;;;;;;11.48;3.33;;;;;;;17.25;68.03;101160.91;5051987;28;20037;-52
2023/07/11 01:42:25;;;;;;;9.82;3.15;;;;;;;17.21;67.90;101173.28;5032454;28;20034;-51
2023/07/11 01:44:52;;;;;;;11.48;3.17;;;;;;;17.20;68.75;101173.53;5051359;28;20120;-50
2023/07/11 01:47:18;;;;;;;8.98;2.88;;;;;;;17.28;68.96;101179.38;5052029;28;20108;-47
2023/07/11 01:49:45;;;;;;;10.75;3.17;;;;;;;17.15;68.38;101177.75;5046691;28;20561;-55
2023/07/11 01:52:20;;;;;;;13.63;2.80;;;;;;;17.22;68.34;101179.53;5038307;28;20041;-54
2023/07/11 01:54:47;;;;;;;8.05;3.10;;;;;;;17.22;68.23;101182.22;5032386;28;20044;-55
2023/07/11 01:57:15;;;;;;;11.40;3.72;;;;;;;17.33;67.98;101175.94;5032133;28;20049;-55
2023/07/11 01:59:42;;;;;;;13.52;3.85;;;;;;;17.30;68.07;101168.31;5033658;28;20045;-49
2023/07/11 02:02:10;;;;;;;13.02;3.47;;;;;;;17.19;68.74;101182.69;5028906;28;20029;-50
2023/07/11 02:04:38;;;;;;;10.18;3.38;;;;;;;17.42;67.84;101177.19;5036178;28;20533;-50
2023/07/11 02:07:05;;;;;;;12.60;3.00;;;;;;;17.44;67.16;101169.66;5051930;28;20079;-48
2023/07/11 02:09:31;;;;;;;7.70;3.05;;;;;;;17.84;66.11;101174.97;5024841;28;20043;-50
2023/07/11 02:11:58;;;;;;;8.85;2.72;;;;;;;18.02;64.82;101173.06;5045513;28;20032;-48
2023/07/11 02:14:25;;;;;;;7.05;2.70;;;;;;;17.97;65.04;101157.56;5051057;28;20075;-49
2023/07/11 02:16:52;;;;;;;8.90;2.65;;;;;;;18.17;64.30;101168.72;5033342;28;20186;-50
2023/07/11 02:19:20;;;;;;;6.90;2.35;;;;;;;18.28;63.65;101166.16;5032033;28;20033;-50
2023/07/11 02:21:47;;;;;;;8.00;2.45;;;;;;;18.47;63.03;101172.91;5032000;28;20029;-50
2023/07/11 02:24:16;;;;;;;10.68;2.85;;;;;;;19.12;61.06;101169.41;5032056;28;20112;-50
2023/07/11 02:26:43;;;;;;;6.45;2.53;;;;;;;19.01;59.97;101169.56;5031629;28;20475;-49
2023/07/11 02:29:09;;;;;;;9.93;2.63;;;;;;;18.78;60.77;101167.94;5030960;28;20029;-49
2023/07/11 02:31:37;;;;;;;5.20;2.28;;;;;;;18.13;62.97;101172.16;5031483;28;20109;-45
2023/07/11 02:34:04;;;;;;;13.25;2.85;;;;;;;17.53;65.21;101176.28;5031332;28;20507;-46
2023/07/11 02:36:31;;;;;;;6.68;2.67;;;;;;;17.01;66.94;101181.84;5031684;28;20029;-46
2023/07/11 02:38:58;;;;;;;10.02;2.85;;;;;;;16.69;68.54;101183.28;5031430;28;20033;-45
2023/07/11 02:41:25;;;;;;;14.38;3.28;;;;;;;16.52;69.49;101186.72;5031346;28;20017;-45
2023/07/11 02:43:52;;;;;;;15.15;2.85;;;;;;;16.35;70.06;101183.91;5031509;28;20026;-45
2023/07/11 02:46:18;;;;;;;11.48;2.83;;;;;;;16.15;71.19;101183.44;5039137;28;20032;-51
2023/07/11 02:48:45;;;;;;;9.70;3.03;;;;;;;16.09;71.37;101187.09;5051853;28;20075;-49
2023/07/11 02:51:12;;;;;;;9.38;2.72;;;;;;;16.00;71.80;101183.91;5046118;28;20032;-45
2023/07/11 02:53:38;;;;;;;13.38;3.60;;;;;;;15.66;73.55;101179.28;5051479;28;20037;-47
2023/07/11 02:56:05;;;;;;;7.60;2.65;;;;;;;15.48;74.17;101180.13;5052786;28;20095;-48
2023/07/11 02:58:31;;;;;;;7.43;3.00;;;;;;;15.41;74.85;101172.16;5055154;28;20037;-46
2023/07/11 03:01:00;;;;;;;6.97;2.70;;;;;;;15.20;75.71;101173.47;5055478;28;20059;-48
2023/07/11 03:03:27;;;;;;;6.93;2.78;;;;;;;15.10;76.41;101180.44;5055706;28;20036;-50
2023/07/11 03:05:54;;;;;;;5.97;3.00;;;;;;;14.95;77.05;101173.59;5035235;28;20033;-49
2023/07/11 03:08:20;;;;;;;10.18;2.92;;;;;;;14.75;78.26;101176.53;5049409;28;20154;-50
2023/07/11 03:10:47;;;;;;;10.13;3.35;;;;;;;14.53;79.44;101170.75;5055293;28;20379;-46
2023/07/11 03:13:13;;;;;;;5.53;2.90;;;;;;;14.19;80.80;101174.81;5055321;28;20035;-48
2023/07/11 03:15:40;;;;;;;5.75;2.78;;;;;;;14.08;82.02;101167.47;5054457;28;20056;-47
2023/07/11 03:18:08;;;;;;;5.93;2.38;;;;;;;14.04;82.51;101168.94;5055569;28;20045;-46
2023/07/11 03:20:42;;;;;;;6.78;2.65;;;;;;;13.97;82.90;101174.38;5054868;28;20091;-47
2023/07/11 03:23:12;;;;;;;7.70;2.90;;;;;;;13.76;84.60;101179.31;5054963;28;20028;-46
2023/07/11 03:25:38;;;;;;;7.18;2.85;;;;;;;13.67;85.71;101176.91;5035540;28;20025;-48
2023/07/11 03:28:05;;;;;;;9.75;3.08;;;;;;;13.64;85.56;101179.22;5035114;28;20075;-46
2023/07/11 03:30:32;;;;;;;6.93;3.00;;;;;;;13.60;85.77;101172.59;5034522;28;20035;-49
2023/07/11 03:32:59;;;;;;;5.80;2.63;;;;;;;13.43;86.94;101175.81;5034970;28;20030;-46
2023/07/11 03:35:25;;;;;;;11.65;3.63;;;;;;;13.42;87.73;101168.78;5034537;28;20086;-46
2023/07/11 03:37:51;;;;;;;9.88;3.40;;;;;;;13.44;88.23;101182.03;5035002;28;20029;-46
2023/07/11 03:40:17;;;;;;;8.88;3.05;;;;;;;13.46;87.82;101172.72;5043835;28;20021;-48
2023/07/11 03:42:44;;;;;;;10.80;3.70;;;;;;;13.31;88.25;101172.16;5035189;28;20087;-49
2023/07/11 03:45:10;;;;;;;6.82;2.90;;;;;;;13.14;88.64;101169.13;5034836;28;20123;-48
2023/07/11 03:47:36;;;;;;;9.02;2.92;;;;;;;13.11;89.27;101164.22;5034599;28;20475;-47
2023/07/11 03:50:03;;;;;;;9.18;2.95;;;;;;;13.05;89.67;101173.13;5034448;28;20025;-50
2023/07/11 03:52:29;;;;;;;9.70;3.45;;;;;;;13.11;90.08;101176.81;5034359;28;20025;-45
2023/07/11 03:54:55;;;;;;;6.15;3.58;;;;;;;13.11;90.14;101172.28;5034366;28;20088;-49
2023/07/11 03:57:21;;;;;;;11.57;3.83;;;;;;;13.00;91.14;101169.44;5034346;28;20053;-44
2023/07/11 03:59:48;;;;;;;8.25;3.47;;;;;;;13.01;91.15;101176.44;5034099;28;20032;-45
2023/07/11 04:02:14;;;;;;;8.80;3.22;;;;;;;13.07;90.92;101178.28;5034064;28;20040;-45
2023/07/11 04:04:42;;;;;;;8.23;3.20;;;;;;;13.05;90.91;101183.06;5034494;28;20028;-47
2023/07/11 04:07:08;;;;;;;13.43;3.28;;;;;;;13.17;89.85;101184.03;5029932;28;20033;-46
2023/07/11 04:09:34;;;;;;;8.85;2.40;;;;;;;13.11;90.51;101182.19;5033835;28;20029;-46
2023/07/11 04:12:01;;;;;;;6.43;3.17;;;;;;;13.07;90.54;101180.97;5034353;28;20114;-46
2023/07/11 04:14:27;;;;;;;6.38;2.88;;;;;;;13.12;90.68;101183.84;5034017;28;20116;-47
2023/07/11 04:16:53;;;;;;;7.30;2.78;;;;;;;13.09;90.83;101184.25;5034157;28;20120;-45
2023/07/11 04:19:19;;;;;;;6.20;2.78;;;;;;;13.11;91.37;101190.25;5033774;28;20029;-46
2023/07/11 04:21:45;;;;;;;6.05;2.38;;;;;;;13.20;90.87;101186.25;5016530;28;20033;-46
2023/07/11 04:24:12;;;;;;;8.25;2.42;;;;;;;13.24;90.65;101186.69;5033876;28;20051;-51
2023/07/11 04:26:38;;;;;;;6.13;2.63;;;;;;;13.24;90.39;101192.91;5034167;28;20040;-46
2023/07/11 04:29:04;;;;;;;6.07;2.22;;;;;;;13.25;90.06;101194.53;5033798;28;20034;-47
2023/07/11 04:31:31;;;;;;;9.25;2.47;;;;;;;13.25;89.89;101191.03;5034078;28;20047;-48
2023/07/11 04:33:57;;;;;;;8.60;2.60;;;;;;;13.36;89.73;101196.56;5033509;28;20029;-45
2023/07/11 04:36:24;;;;;;;6.95;2.40;;;;;;;13.37;89.67;101192.81;5033881;28;20471;-46
2023/07/11 04:38:50;;;;;;;8.27;3.38;;;;;;;13.35;89.98;101194.09;5033318;28;20120;-47
2023/07/11 04:41:16;;;;;;;8.07;3.00;;;;;;;13.42;89.72;101195.69;5033794;28;20026;-45
2023/07/11 04:43:42;;;;;;;9.88;2.80;;;;;;;13.42;89.55;101198.38;5033414;28;20026;-47
2023/07/11 04:46:10;;;;;;;8.95;3.33;;;;;;;13.40;90.03;101196.94;5033762;28;20033;-47
2023/07/11 04:48:36;;;;;;;10.27;3.22;;;;;;;13.40;90.25;101203.16;5043020;28;20056;-46
2023/07/11 04:51:05;;;;;;;8.52;3.33;;;;;;;13.48;89.38;101200.19;5043343;28;20025;-46
2023/07/11 04:53:33;;;;;;;9.02;3.40;;;;;;;13.51;89.27;101204.34;5052443;28;20086;-46
2023/07/11 04:56:02;;;;;;;8.65;3.38;;;;;;;13.53;89.24;101207.63;5051388;28;20045;-45
2023/07/11 04:58:29;;;;;;;14.68;3.97;;;;;;;13.50;89.34;101212.63;5051272;28;20394;-46
2023/07/11 05:01:05;;;;;;;14.88;4.53;;;;;;;13.46;89.33;101210.34;5052783;28;20514;-46
2023/07/11 05:03:32;;;;;;;13.25;4.38;;;;;;;13.42;89.55;101211.81;5051438;28;20123;-46
2023/07/11 05:05:58;;;;;;;14.30;4.07;;;;;;;13.39;89.65;101206.88;5044090;28;20055;-50
2023/07/11 05:08:25;;;;;;;12.80;4.28;;;;;;;13.48;89.15;101218.19;5034814;28;20396;-46
2023/07/11 05:11:01;;;;;;;16.33;4.63;;;;;;;13.35;90.01;101211.03;5052163;28;20446;-46
2023/07/11 05:13:28;;;;;;;19.67;4.90;;;;;;;13.24;90.38;101214.41;5053082;28;20037;-50
2023/07/11 05:16:15;;;;;;;17.95;4.72;;;;;;;13.34;90.21;101213.94;5052974;28;20108;-50
2023/07/11 05:18:42;;;;;;;11.13;3.60;;;;;;;13.33;90.07;101213.13;5035651;28;20049;-49
2023/07/11 05:21:10;;;;;;;19.25;5.30;;;;;;;13.24;90.99;101222.47;5052562;28;20095;-49
2023/07/11 05:23:37;;;;;;;9.73;4.00;;;;;;;13.36;90.57;101223.44;5042536;28;20061;-47
2023/07/11 05:26:05;;;;;;;17.20;4.72;;;;;;;13.37;90.42;101219.69;5033038;28;20127;-50
2023/07/11 05:28:32;;;;;;;16.08;4.10;;;;;;;13.40;90.53;101227.34;5032655;28;20063;-46
2023/07/11 05:31:01;;;;;;;17.15;4.30;;;;;;;13.37;90.74;101219.69;5049325;28;20376;-50
2023/07/11 05:33:29;;;;;;;23.92;4.90;;;;;;;13.41;90.57;101222.78;5052506;28;20028;-47
2023/07/11 05:36:34;;;;;;;15.95;4.78;;;;;;;13.34;90.97;101217.47;5052758;28;20032;-46
2023/07/11 05:39:03;;;;;;;13.17;3.87;;;;;;;13.55;90.13;101221.69;5048528;28;20029;-49
2023/07/11 05:41:31;;;;;;;19.80;4.43;;;;;;;13.53;90.10;101217.56;5046832;28;20032;-50
2023/07/11 05:43:57;;;;;;;19.30;4.15;;;;;;;13.53;89.92;101222.94;5052009;28;20029;-50
2023/07/11 05:46:27;;;;;;;13.75;4.03;;;;;;;13.55;89.54;101221.69;5052324;28;20024;-47
2023/07/11 05:48:55;;;;;;;13.30;3.75;;;;;;;13.60;89.57;101221.88;5051704;28;20029;-49
2023/07/11 05:51:23;;;;;;;10.18;3.38;;;;;;;13.59;89.21;101224.75;5032155;28;20032;-48
2023/07/11 05:53:50;;;;;;;13.02;4.20;;;;;;;13.57;89.03;101226.84;5032225;28;20124;-50
2023/07/11 05:56:18;;;;;;;11.70;3.70;;;;;;;13.55;89.46;101226.22;5031962;28;20045;-46
2023/07/11 05:58:47;;;;;;;14.57;3.80;;;;;;;13.57;89.27;101221.47;5031734;28;20025;-48
2023/07/11 06:01:17;;;;;;;13.63;4.25;;;;;;;13.56;89.05;101219.81;5045908;28;20422;-48
2023/07/11 06:03:46;;;;;;;15.00;4.05;;;;;;;13.58;88.57;101223.13;5051730;28;20028;-47
2023/07/11 06:06:15;;;;;;;13.23;4.10;;;;;;;13.48;89.19;101221.72;5041203;28;20049;-47
2023/07/11 06:08:42;;;;;;;11.88;4.00;;;;;;;13.54;89.15;101224.56;5051596;28;20043;-45
2023/07/11 06:11:08;;;;;;;11.77;4.30;;;;;;;13.45;89.54;101232.91;5048476;28;20048;-49
2023/07/11 06:13:38;;;;;;;12.45;3.95;;;;;;;13.55;88.73;101220.84;5049762;28;20021;-46
2023/07/11 06:16:12;;;;;;;17.52;4.78;;;;;;;13.42;89.05;101222.56;5032084;28;20056;-46
2023/07/11 06:18:40;;;;;;;14.77;4.00;;;;;;;13.43;89.31;101213.47;5031218;28;20488;-45
2023/07/11 06:21:09;;;;;;;21.13;4.95;;;;;;;13.39;89.79;101212.25;5037640;28;20439;-48
2023/07/11 06:23:36;;;;;;;13.23;3.92;;;;;;;13.38;89.88;101215.16;5051582;28;20021;-45
2023/07/11 06:26:03;;;;;;;8.15;3.42;;;;;;;13.39;90.06;101219.50;5052016;28;20465;-45
2023/07/11 06:28:30;;;;;;;12.82;3.97;;;;;;;13.48;89.61;101212.81;5051913;28;20462;-47
2023/07/11 06:30:58;;;;;;;17.77;4.10;;;;;;;13.45;90.12;101215.97;5046272;28;20108;-48
2023/07/11 06:33:25;;;;;;;12.65;4.25;;;;;;;13.44;90.14;101217.81;5031720;28;20483;-46
2023/07/11 06:35:52;;;;;;;8.35;3.40;;;;;;;13.45;90.27;101214.09;5031475;28;20045;-47
2023/07/11 06:38:19;;;;;;;15.13;4.40;;;;;;;13.47;90.19;101219.25;5031714;28;20476;-48
2023/07/11 06:40:56;;;;;;;13.02;5.13;;;;;;;13.40;90.37;101216.59;5031322;28;20061;-47
2023/07/11 06:43:24;;;;;;;15.93;4.43;;;;;;;13.39;90.78;101216.81;5049288;28;20495;-46
2023/07/11 06:45:56;;;;;;;17.58;4.82;;;;;;;13.44;90.53;101219.69;5051406;28;20035;-47
2023/07/11 06:48:25;;;;;;;18.65;4.70;;;;;;;13.38;90.87;101212.47;5043059;28;20041;-48
2023/07/11 06:50:57;;;;;;;15.23;4.20;;;;;;;13.39;91.17;101206.06;5030898;28;20588;-48
2023/07/11 06:53:26;;;;;;;15.18;4.13;;;;;;;13.34;91.46;101213.94;5031290;28;20041;-48
2023/07/11 06:55:53;;;;;;;15.68;4.65;;;;;;;13.37;91.26;101219.69;5031104;28;20033;-47
2023/07/11 06:58:21;;;;;;;11.40;3.92;;;;;;;13.40;91.01;101216.59;5045241;28;20619;-47
2023/07/11 07:01:03;;;;;;;12.77;4.22;;;;;;;13.43;91.16;101213.47;5051076;28;20083;-46
2023/07/11 07:03:30;;;;;;;11.75;3.67;;;;;;;13.39;91.15;101223.03;5034151;28;20053;-48
2023/07/11 07:06:02;;;;;;;10.32;3.30;;;;;;;13.32;91.81;101210.63;5039532;28;20040;-48
2023/07/11 07:08:29;;;;;;;21.25;4.47;;;;;;;13.41;91.27;101210.16;5051004;28;20071;-45
2023/07/11 07:10:55;;;;;;;16.45;4.40;;;;;;;13.47;91.27;101217.38;5050812;28;20025;-48
2023/07/11 07:13:24;;;;;;;16.95;3.95;;;;;;;13.43;91.40;101216.16;5055005;28;20035;-45
2023/07/11 07:15:56;;;;;;;14.93;4.20;;;;;;;13.38;91.71;101216.00;5070726;28;20136;-45
2023/07/11 07:18:23;;;;;;;18.45;4.07;;;;;;;13.33;91.88;101212.31;5071034;28;20489;-45
2023/07/11 07:20:51;;;;;;;12.82;3.78;;;;;;;13.43;91.05;101212.63;5070554;28;20074;-46
2023/07/11 07:23:18;;;;;;;15.32;4.03;;;;;;;13.46;90.96;101215.72;5047715;28;20539;-45
2023/07/11 07:25:52;;;;;;;18.20;5.15;;;;;;;13.40;90.97;101218.47;5050952;28;20025;-47
2023/07/11 07:28:19;;;;;;;16.20;4.10;;;;;;;13.42;91.20;101211.81;5050377;28;20104;-44
2023/07/11 07:30:51;;;;;;;15.88;4.03;;;;;;;13.37;91.32;101218.88;5038745;28;20035;-45
2023/07/11 07:33:18;;;;;;;13.23;4.25;;;;;;;13.44;90.80;101215.13;5050851;28;20483;-48
2023/07/11 07:35:44;;;;;;;13.77;3.70;;;;;;;13.44;90.90;101215.13;5050775;28;20033;-46
2023/07/11 07:38:11;;;;;;;22.42;4.55;;;;;;;13.45;91.13;101215.97;5050791;28;20112;-46
2023/07/11 07:40:38;;;;;;;16.52;3.83;;;;;;;13.43;91.11;101215.31;5031597;28;20029;-48
2023/07/11 07:43:04;;;;;;;13.77;3.90;;;;;;;13.48;90.56;101210.94;5034035;28;20028;-48
2023/07/11 07:45:31;;;;;;;13.90;3.78;;;;;;;13.41;90.85;101210.16;5034677;28;20025;-45
2023/07/11 07:47:57;;;;;;;9.32;3.42;;;;;;;13.48;90.51;101213.63;5046750;28;20487;-48
2023/07/11 07:50:23;;;;;;;16.00;3.95;;;;;;;13.46;90.66;101217.59;5054333;28;20056;-47
2023/07/11 07:52:49;;;;;;;18.70;4.53;;;;;;;13.31;90.97;101207.13;5054494;28;20098;-45
2023/07/11 07:55:15;;;;;;;11.82;3.72;;;;;;;13.34;91.14;101214.78;5054146;28;20033;-46
2023/07/11 07:57:42;;;;;;;15.82;4.05;;;;;;;13.33;90.90;101215.81;5034948;28;20057;-47
2023/07/11 08:00:09;;;;;;;14.20;4.47;;;;;;;13.34;91.31;101217.47;5034132;28;20556;-47
2023/07/11 08:02:37;;;;;;;15.38;4.30;;;;;;;13.37;91.64;101218.88;5034312;28;20049;-47
2023/07/11 08:05:04;;;;;;;16.35;4.35;;;;;;;13.30;92.09;101208.16;5034525;28;20028;-47
2023/07/11 08:07:30;;;;;;;16.45;4.28;;;;;;;13.30;92.09;101212.72;5045868;28;20078;-47
2023/07/11 08:09:58;;;;;;;16.70;4.82;;;;;;;13.33;91.54;101215.00;5037379;28;20040;-45
2023/07/11 08:12:25;;;;;;;15.77;4.30;;;;;;;13.30;91.76;101218.09;5033744;28;20380;-45
2023/07/11 08:14:51;;;;;;;14.48;4.60;;;;;;;13.41;90.88;101210.16;5035067;28;20109;-48
2023/07/11 08:17:17;;;;;;;21.73;5.18;;;;;;;13.32;91.22;101213.31;5048030;28;20082;-48
2023/07/11 08:19:43;;;;;;;15.65;5.00;;;;;;;13.26;91.51;101209.63;5053823;28;20017;-46
2023/07/11 08:22:10;;;;;;;14.63;4.30;;;;;;;13.36;91.23;101218.06;5053663;28;20021;-46
2023/07/11 08:24:36;;;;;;;19.00;4.38;;;;;;;13.31;91.76;101204.44;5054012;28;20112;-46
2023/07/11 08:27:03;;;;;;;12.98;3.75;;;;;;;13.36;91.76;101206.47;5044854;28;20491;-45
2023/07/11 08:29:29;;;;;;;19.10;4.10;;;;;;;13.38;91.46;101210.63;5034437;28;20043;-44
2023/07/11 08:31:56;;;;;;;16.38;4.53;;;;;;;13.33;91.52;101207.75;5039247;28;20043;-46
2023/07/11 08:34:22;;;;;;;19.08;4.20;;;;;;;13.37;91.68;101208.94;5033704;28;20029;-45
2023/07/11 08:36:49;;;;;;;19.88;5.03;;;;;;;13.36;91.91;101201.94;5033593;28;20029;-44
2023/07/11 08:39:15;;;;;;;13.07;4.07;;;;;;;13.41;91.25;101210.16;5033968;28;20025;-45
2023/07/11 08:41:41;;;;;;;18.02;4.38;;;;;;;13.50;90.82;101208.06;5047719;28;20064;-46
2023/07/11 08:44:30;;;;;;;12.20;3.90;;;;;;;13.45;90.98;101206.03;5033496;28;20029;-48
2023/07/11 08:47:23;;;;;;;13.38;3.70;;;;;;;13.38;91.24;101205.25;5033370;28;20047;-48
2023/07/11 08:50:02;;;;;;;19.75;4.57;;;;;;;13.44;91.22;101212.44;5033144;28;20037;-45
2023/07/11 08:52:31;;;;;;;19.23;4.40;;;;;;;13.44;91.45;101209.75;5052802;28;20024;-48
2023/07/11 08:55:15;;;;;;;21.75;5.03;;;;;;;13.45;92.05;101215.97;5052542;28;20120;-45
2023/07/11 08:57:52;;;;;;;15.73;4.65;;;;;;;13.38;92.23;101210.63;5033015;28;20104;-44
2023/07/11 09:00:19;;;;;;;15.48;4.25;;;;;;;13.43;92.13;101212.63;5040269;28;20021;-47
2023/07/11 09:03:06;;;;;;;15.02;4.43;;;;;;;13.37;92.40;101213.50;5052894;28;20025;-47
2023/07/11 09:05:55;;;;;;;19.80;4.25;;;;;;;13.50;91.48;101213.44;5035092;28;20030;-45
2023/07/11 09:08:22;;;;;;;13.88;3.80;;;;;;;13.38;91.67;101207.94;5033098;28;20030;-46
2023/07/11 09:11:03;;;;;;;15.15;4.43;;;;;;;13.36;91.94;101209.16;5024458;28;20072;-47
2023/07/11 09:13:54;;;;;;;9.02;3.30;;;;;;;13.43;92.16;101202.72;5053050;28;20029;-48
2023/07/11 09:16:35;;;;;;;11.98;4.32;;;;;;;13.34;91.84;101195.94;5052854;28;20529;-47
2023/07/11 09:19:31;;;;;;;17.08;4.40;;;;;;;13.34;92.73;101198.66;5050381;28;20044;-44
2023/07/11 09:22:03;;;;;;;17.02;4.55;;;;;;;13.44;92.24;101204.38;5046000;28;20028;-46
2023/07/11 09:24:58;;;;;;;17.48;5.13;;;;;;;13.46;92.31;101199.59;5046007;28;20075;-46
2023/07/11 09:27:42;;;;;;;19.90;4.38;;;;;;;13.58;91.70;101206.97;5042472;28;20180;-44
2023/07/11 09:30:25;;;;;;;15.70;4.28;;;;;;;13.47;91.82;101203.94;5032275;28;20488;-45
2023/07/11 09:32:51;;;;;;;17.67;3.83;;;;;;;13.46;92.14;101201.47;5040874;28;20498;-49
2023/07/11 09:35:26;;;;;;;16.23;4.85;;;;;;;13.59;90.65;101198.69;5052251;28;20021;-48
2023/07/11 09:38:05;;;;;;;15.75;4.15;;;;;;;13.53;91.05;101193.34;5047736;28;20029;-46
2023/07/11 09:40:36;;;;;;;16.35;4.30;;;;;;;13.54;91.30;101192.31;5041778;28;20418;-46
2023/07/11 09:43:04;;;;;;;13.32;4.63;;;;;;;13.61;90.87;101193.94;5045669;28;20087;-46
2023/07/11 09:45:36;;;;;;;13.30;4.22;;;;;;;13.60;90.83;101188.75;5032461;28;20388;-49
2023/07/11 09:48:28;;;;;;;16.10;4.28;;;;;;;13.54;90.91;101198.50;5032206;28;20651;-48
2023/07/11 09:51:10;;;;;;;15.27;4.20;;;;;;;13.60;90.87;101196.81;5032474;28;20387;-48
2023/07/11 09:53:40;;;;;;;15.10;3.85;;;;;;;13.64;90.60;101192.66;5038223;28;20031;-47
2023/07/11 09:56:20;;;;;;;25.52;4.53;;;;;;;13.48;91.54;101194.00;5037363;28;20033;-49
2023/07/11 09:58:53;;;;;;;15.15;4.20;;;;;;;13.55;90.85;101188.56;5031681;28;20034;-47
2023/07/11 10:01:33;;;;;;;12.82;4.22;;;;;;;13.47;91.04;101198.56;5031966;28;20022;-45
2023/07/11 10:04:01;;;;;;;14.88;4.40;;;;;;;13.53;91.06;101202.25;5037189;28;20029;-46
2023/07/11 10:06:39;;;;;;;13.85;4.53;;;;;;;13.51;91.10;101200.81;5051911;28;20050;-46
2023/07/11 10:09:17;;;;;;;18.77;4.60;;;;;;;13.45;90.79;101195.25;5046523;28;20390;-45
2023/07/11 10:11:53;;;;;;;12.18;3.88;;;;;;;13.57;90.66;101197.25;5034923;28;20038;-47
2023/07/11 10:14:23;;;;;;;16.00;4.43;;;;;;;13.51;90.45;101198.13;5032108;28;20033;-48
2023/07/11 10:16:49;;;;;;;20.02;4.22;;;;;;;13.47;90.85;101195.88;5035900;28;20098;-47
2023/07/11 10:19:17;;;;;;;27.17;5.07;;;;;;;13.48;91.04;101194.81;5051465;28;20083;-47
2023/07/11 10:21:48;;;;;;;22.67;5.47;;;;;;;13.43;91.54;101180.38;5051777;28;20072;-49
2023/07/11 10:24:20;;;;;;;17.83;5.35;;;;;;;13.41;91.83;101188.66;5050306;28;20021;-49
2023/07/11 10:26:51;;;;;;;20.10;5.78;;;;;;;13.45;92.16;101189.88;5031914;28;20036;-48
2023/07/11 10:29:21;;;;;;;16.92;4.75;;;;;;;13.51;92.22;101196.25;5038687;28;20025;-48
2023/07/11 10:31:55;;;;;;;19.15;4.78;;;;;;;13.49;92.14;101179.50;5051109;28;20032;-48
2023/07/11 10:34:39;;;;;;;17.20;4.50;;;;;;;13.48;92.11;101194.00;5048573;28;20026;-47
2023/07/11 10:37:16;;;;;;;17.38;4.60;;;;;;;13.47;91.87;101187.78;5031759;28;20029;-45
2023/07/11 10:40:11;;;;;;;21.48;5.60;;;;;;;13.53;91.98;101185.28;5031265;28;20112;-44
2023/07/11 10:42:54;;;;;;;26.77;5.28;;;;;;;13.59;91.69;101187.91;5039378;28;20021;-44
2023/07/11 10:45:26;;;;;;;17.02;4.22;;;;;;;13.54;91.72;101181.53;5053731;28;20021;-46
2023/07/11 10:48:04;;;;;;;17.65;4.82;;;;;;;13.47;92.21;101182.41;5031299;28;20025;-44
2023/07/11 10:50:52;;;;;;;22.20;4.82;;;;;;;13.56;91.28;101179.47;5031081;28;20538;-45
2023/07/11 10:53:36;;;;;;;19.08;5.18;;;;;;;13.60;91.36;101184.22;5031372;28;20368;-44
2023/07/11 10:56:34;;;;;;;12.55;4.40;;;;;;;13.54;91.53;101182.38;5039770;28;20367;-45
2023/07/11 10:59:01;;;;;;;15.20;4.75;;;;;;;13.53;91.76;101183.41;5037733;28;20065;-45
2023/07/11 11:01:59;;;;;;;18.77;4.68;;;;;;;13.58;91.90;101188.97;5041005;28;20026;-46
2023/07/11 11:04:47;;;;;;;26.98;5.82;;;;;;;13.42;92.60;101194.88;5031328;28;20053;-44
2023/07/11 11:07:13;;;;;;;17.92;4.50;;;;;;;13.48;92.29;101194.81;5045732;28;20039;-44
2023/07/11 11:09:54;;;;;;;13.80;4.20;;;;;;;13.55;92.10;101188.56;5050994;28;20033;-44
2023/07/11 11:12:41;;;;;;;17.58;5.18;;;;;;;13.41;92.51;101193.22;5041480;28;20024;-46
2023/07/11 11:15:14;;;;;;;16.15;4.72;;;;;;;13.41;92.50;101196.72;5031267;28;20052;-48
2023/07/11 11:17:44;;;;;;;18.33;5.00;;;;;;;13.50;91.88;101196.50;5045506;28;20029;-46
2023/07/11 11:20:19;;;;;;;11.65;4.22;;;;;;;13.53;91.69;101198.72;5048064;28;20096;-48
2023/07/11 11:23:26;;;;;;;15.73;4.05;;;;;;;13.55;92.00;101191.25;5035216;28;20029;-45
2023/07/11 11:26:23;;;;;;;20.65;4.65;;;;;;;13.46;92.18;101191.53;5035420;28;20123;-46
2023/07/11 11:28:55;;;;;;;18.23;4.95;;;;;;;13.47;91.83;101184.28;5048896;28;20026;-48
2023/07/11 11:31:25;;;;;;;24.45;5.35;;;;;;;13.53;91.79;101186.09;5035089;28;20029;-48
2023/07/11 11:33:54;;;;;;;16.98;4.47;;;;;;;13.50;91.99;101188.41;5034621;28;20436;-48